To NAV CANADA Home Page Login to a new session Search on AWWS site Feedback and Comments Disclaimer Vers la page française équivalente Tips FAQ What's new on the site To the Forecasts and Observations / NOTAM section To "File a Flight Plan" website Publications and other links Update of the User's profile FIC Telephone Numbers My Weather Data Folder Route Weather Data Regional Weather Data Local Weather Data To the Forecasts and Observations / NOTAM section
Request Generated 04/23/2014 at 17:31:05 UTC . Weather information available at that time is displayed.

METAR/TAF

STEPHENVILLE/NL    

METAR CYJT 231700Z 08011KT 15SM FEW025 SCT050 OVC100 09/01 A2971 RMK SC1SC2AC5 SLP062=
METAR CYJT 231600Z 07013KT 15SM FEW025 SCT050 OVC100 08/01 A2971 RMK SC1SC2AC5 SLP061=
SPECI CYJT 231521Z 08013KT 15SM FEW025 SCT050 OVC100 RMK SC1SC2AC5=
METAR CYJT 231500Z 09015KT 15SM -SHRA FEW025 SCT050 OVC100 07/01 A2973 RMK SC1SC3AC4 SLP067=

TAF CYJT 231138Z 2312/2412 07015KT P6SM -RA BKN040 OVC120
FM231400 08012KT P6SM SCT020 OVC070 TEMPO 2314/2324 P6SM -SHRA
BECMG 2321/2323 08015G25KT
FM240200 08015G25KT P6SM FEW020 BKN080
BECMG 2402/2404 08018G28KT
RMK NXT FCST BY 231800Z=
Your time UTC time
Weather data provided by Environment Canada and NAV CANADA